sensor_id;sensor_type;location;lat;lon;timestamp;P1;durP1;ratioP1;P2;durP2;ratioP2
44704;SDS011;30431;48.520;9.046;2022-12-13T22:08:32;20.40;;;11.50;;
44704;SDS011;30431;48.520;9.046;2022-12-13T22:11:01;20.10;;;12.07;;
44704;SDS011;30431;48.520;9.046;2022-12-13T22:13:46;18.55;;;11.50;;
44704;SDS011;30431;48.520;9.046;2022-12-13T22:16:14;19.13;;;11.65;;
44704;SDS011;30431;48.520;9.046;2022-12-13T22:18:44;22.88;;;12.27;;
44704;SDS011;30431;48.520;9.046;2022-12-13T22:23:38;19.95;;;12.23;;
44704;SDS011;30431;48.520;9.046;2022-12-13T22:26:07;21.10;;;12.35;;
44704;SDS011;30431;48.520;9.046;2022-12-13T22:28:37;19.75;;;11.57;;
44704;SDS011;30431;48.520;9.046;2022-12-13T22:34:21;21.65;;;12.95;;
44704;SDS011;30431;48.520;9.046;2022-12-13T22:36:48;23.30;;;12.50;;
44704;SDS011;30431;48.520;9.046;2022-12-13T22:39:18;18.35;;;12.30;;
44704;SDS011;30431;48.520;9.046;2022-12-13T22:41:49;19.00;;;12.40;;
44704;SDS011;30431;48.520;9.046;2022-12-13T22:44:17;18.50;;;12.40;;
44704;SDS011;30431;48.520;9.046;2022-12-13T22:46:48;20.05;;;12.00;;
44704;SDS011;30431;48.520;9.046;2022-12-13T22:49:15;20.50;;;12.68;;
44704;SDS011;30431;48.520;9.046;2022-12-13T22:56:36;19.08;;;11.02;;
44704;SDS011;30431;48.520;9.046;2022-12-13T22:59:03;22.48;;;11.90;;
44704;SDS011;30431;48.520;9.046;2022-12-13T23:01:34;20.20;;;11.63;;
44704;SDS011;30431;48.520;9.046;2022-12-13T23:04:03;23.67;;;12.23;;
44704;SDS011;30431;48.520;9.046;2022-12-13T23:06:34;19.17;;;11.48;;
44704;SDS011;30431;48.520;9.046;2022-12-13T23:09:12;18.38;;;11.65;;
44704;SDS011;30431;48.520;9.046;2022-12-13T23:11:40;20.48;;;12.32;;
44704;SDS011;30431;48.520;9.046;2022-12-13T23:14:27;18.23;;;12.10;;
44704;SDS011;30431;48.520;9.046;2022-12-13T23:17:01;18.80;;;11.60;;
44704;SDS011;30431;48.520;9.046;2022-12-13T23:19:29;19.92;;;12.90;;
44704;SDS011;30431;48.520;9.046;2022-12-13T23:22:16;19.63;;;12.60;;
44704;SDS011;30431;48.520;9.046;2022-12-13T23:24:44;23.08;;;12.55;;
44704;SDS011;30431;48.520;9.046;2022-12-13T23:27:13;26.15;;;13.07;;
44704;SDS011;30431;48.520;9.046;2022-12-13T23:29:41;17.15;;;11.85;;
44704;SDS011;30431;48.520;9.046;2022-12-13T23:32:10;20.15;;;12.93;;
44704;SDS011;30431;48.520;9.046;2022-12-13T23:34:43;20.85;;;13.07;;
44704;SDS011;30431;48.520;9.046;2022-12-13T23:37:10;20.80;;;13.63;;
44704;SDS011;30431;48.520;9.046;2022-12-13T23:39:37;23.17;;;13.77;;
44704;SDS011;30431;48.520;9.046;2022-12-13T23:42:06;23.02;;;13.63;;
44704;SDS011;30431;48.520;9.046;2022-12-13T23:44:33;21.48;;;13.20;;
44704;SDS011;30431;48.520;9.046;2022-12-13T23:47:03;22.45;;;14.30;;
44704;SDS011;30431;48.520;9.046;2022-12-13T23:49:30;22.88;;;13.82;;
44704;SDS011;30431;48.520;9.046;2022-12-13T23:51:59;27.63;;;15.25;;
44704;SDS011;30431;48.520;9.046;2022-12-13T23:54:26;25.23;;;15.38;;
44704;SDS011;30431;48.520;9.046;2022-12-13T23:56:55;22.75;;;15.38;;
44704;SDS011;30431;48.520;9.046;2022-12-13T23:59:22;24.00;;;15.70;;
